sensor_id;sensor_type;location;lat;lon;timestamp;P1;durP1;ratioP1;P2;durP2;ratioP2
14251;SDS011;7210;51.502;10.722;2024-01-11T00:01:58;54.70;;;28.50;;
14251;SDS011;7210;51.502;10.722;2024-01-11T00:04:26;55.83;;;30.63;;
14251;SDS011;7210;51.502;10.722;2024-01-11T00:06:53;61.17;;;30.47;;
14251;SDS011;7210;51.502;10.722;2024-01-11T00:09:21;52.97;;;29.20;;
14251;SDS011;7210;51.502;10.722;2024-01-11T00:11:48;62.63;;;31.07;;
14251;SDS011;7210;51.502;10.722;2024-01-11T00:14:15;61.30;;;32.47;;
14251;SDS011;7210;51.502;10.722;2024-01-11T00:16:42;54.90;;;29.43;;
14251;SDS011;7210;51.502;10.722;2024-01-11T00:19:09;60.93;;;30.20;;
14251;SDS011;7210;51.502;10.722;2024-01-11T00:21:37;60.93;;;30.43;;
14251;SDS011;7210;51.502;10.722;2024-01-11T00:24:04;53.80;;;28.70;;
14251;SDS011;7210;51.502;10.722;2024-01-11T00:26:32;58.57;;;31.03;;
14251;SDS011;7210;51.502;10.722;2024-01-11T00:28:59;53.97;;;28.43;;
14251;SDS011;7210;51.502;10.722;2024-01-11T00:31:27;52.37;;;28.70;;
14251;SDS011;7210;51.502;10.722;2024-01-11T00:33:54;53.47;;;28.07;;
14251;SDS011;7210;51.502;10.722;2024-01-11T00:36:21;59.77;;;29.60;;
14251;SDS011;7210;51.502;10.722;2024-01-11T00:38:48;55.33;;;28.90;;
14251;SDS011;7210;51.502;10.722;2024-01-11T00:41:15;54.50;;;29.27;;
14251;SDS011;7210;51.502;10.722;2024-01-11T00:43:44;58.10;;;29.40;;
14251;SDS011;7210;51.502;10.722;2024-01-11T00:46:13;52.57;;;29.30;;
14251;SDS011;7210;51.502;10.722;2024-01-11T00:48:40;52.23;;;28.57;;
14251;SDS011;7210;51.502;10.722;2024-01-11T00:51:13;56.13;;;30.20;;
14251;SDS011;7210;51.502;10.722;2024-01-11T00:53:41;54.50;;;28.77;;
14251;SDS011;7210;51.502;10.722;2024-01-11T00:56:14;52.93;;;29.17;;
14251;SDS011;7210;51.502;10.722;2024-01-11T00:58:42;56.30;;;28.90;;
14251;SDS011;7210;51.502;10.722;2024-01-11T01:01:11;59.50;;;28.63;;
14251;SDS011;7210;51.502;10.722;2024-01-11T01:03:39;55.10;;;29.50;;
14251;SDS011;7210;51.502;10.722;2024-01-11T01:06:06;53.07;;;29.20;;
14251;SDS011;7210;51.502;10.722;2024-01-11T01:08:33;57.30;;;30.33;;
14251;SDS011;7210;51.502;10.722;2024-01-11T01:11:00;57.83;;;29.80;;
14251;SDS011;7210;51.502;10.722;2024-01-11T01:13:27;56.73;;;30.43;;
14251;SDS011;7210;51.502;10.722;2024-01-11T01:15:57;56.03;;;30.23;;
14251;SDS011;7210;51.502;10.722;2024-01-11T01:18:24;55.17;;;29.43;;
14251;SDS011;7210;51.502;10.722;2024-01-11T01:20:52;57.67;;;31.57;;
14251;SDS011;7210;51.502;10.722;2024-01-11T01:23:19;52.20;;;28.87;;
14251;SDS011;7210;51.502;10.722;2024-01-11T01:25:46;55.00;;;29.17;;
14251;SDS011;7210;51.502;10.722;2024-01-11T01:28:14;58.43;;;29.17;;
14251;SDS011;7210;51.502;10.722;2024-01-11T01:30:41;58.67;;;30.30;;
14251;SDS011;7210;51.502;10.722;2024-01-11T01:33:10;55.37;;;29.03;;
14251;SDS011;7210;51.502;10.722;2024-01-11T01:35:37;57.87;;;30.73;;
14251;SDS011;7210;51.502;10.722;2024-01-11T01:38:04;54.73;;;28.97;;
14251;SDS011;7210;51.502;10.722;2024-01-11T01:40:31;51.23;;;28.67;;
14251;SDS011;7210;51.502;10.722;2024-01-11T01:42:58;54.73;;;28.90;;
14251;SDS011;7210;51.502;10.722;2024-01-11T01:45:31;54.00;;;29.97;;
14251;SDS011;7210;51.502;10.722;2024-01-11T01:47:58;59.27;;;29.30;;
14251;SDS011;7210;51.502;10.722;2024-01-11T01:50:27;55.87;;;29.13;;
14251;SDS011;7210;51.502;10.722;2024-01-11T01:52:54;57.27;;;29.63;;
14251;SDS011;7210;51.502;10.722;2024-01-11T01:55:22;53.73;;;29.23;;
14251;SDS011;7210;51.502;10.722;2024-01-11T01:57:52;53.27;;;28.87;;
14251;SDS011;7210;51.502;10.722;2024-01-11T02:00:25;61.13;;;31.50;;
14251;SDS011;7210;51.502;10.722;2024-01-11T02:02:53;49.57;;;27.10;;
14251;SDS011;7210;51.502;10.722;2024-01-11T02:05:24;58.00;;;28.80;;
14251;SDS011;7210;51.502;10.722;2024-01-11T02:07:52;55.97;;;28.80;;
14251;SDS011;7210;51.502;10.722;2024-01-11T02:10:20;52.43;;;29.40;;
14251;SDS011;7210;51.502;10.722;2024-01-11T02:12:49;56.00;;;30.93;;
14251;SDS011;7210;51.502;10.722;2024-01-11T02:15:16;52.23;;;29.00;;
14251;SDS011;7210;51.502;10.722;2024-01-11T02:17:44;54.03;;;30.77;;
14251;SDS011;7210;51.502;10.722;2024-01-11T02:20:11;54.63;;;30.40;;
14251;SDS011;7210;51.502;10.722;2024-01-11T02:22:38;56.73;;;29.33;;
14251;SDS011;7210;51.502;10.722;2024-01-11T02:25:15;53.73;;;28.10;;
14251;SDS011;7210;51.502;10.722;2024-01-11T02:27:46;61.53;;;30.00;;
14251;SDS011;7210;51.502;10.722;2024-01-11T02:30:14;58.83;;;29.33;;
14251;SDS011;7210;51.502;10.722;2024-01-11T02:32:43;56.67;;;29.87;;
14251;SDS011;7210;51.502;10.722;2024-01-11T02:35:12;57.27;;;31.20;;
14251;SDS011;7210;51.502;10.722;2024-01-11T02:37:40;52.80;;;29.33;;
14251;SDS011;7210;51.502;10.722;2024-01-11T02:40:08;59.97;;;30.13;;
14251;SDS011;7210;51.502;10.722;2024-01-11T02:42:37;57.53;;;31.70;;
14251;SDS011;7210;51.502;10.722;2024-01-11T02:45:05;54.40;;;29.43;;
14251;SDS011;7210;51.502;10.722;2024-01-11T02:47:33;56.13;;;30.17;;
14251;SDS011;7210;51.502;10.722;2024-01-11T02:50:00;51.43;;;29.30;;
14251;SDS011;7210;51.502;10.722;2024-01-11T02:52:27;53.83;;;29.83;;
14251;SDS011;7210;51.502;10.722;2024-01-11T02:54:55;54.93;;;29.17;;
14251;SDS011;7210;51.502;10.722;2024-01-11T02:57:22;54.07;;;28.70;;
14251;SDS011;7210;51.502;10.722;2024-01-11T02:59:51;54.33;;;29.33;;
14251;SDS011;7210;51.502;10.722;2024-01-11T03:02:18;57.00;;;30.00;;
14251;SDS011;7210;51.502;10.722;2024-01-11T03:04:45;55.40;;;29.07;;
14251;SDS011;7210;51.502;10.722;2024-01-11T03:07:12;56.80;;;30.83;;
14251;SDS011;7210;51.502;10.722;2024-01-11T03:09:39;56.03;;;29.13;;
14251;SDS011;7210;51.502;10.722;2024-01-11T03:12:06;61.73;;;30.80;;
14251;SDS011;7210;51.502;10.722;2024-01-11T03:14:33;57.30;;;29.00;;
14251;SDS011;7210;51.502;10.722;2024-01-11T03:17:02;55.53;;;30.90;;
14251;SDS011;7210;51.502;10.722;2024-01-11T03:19:30;54.73;;;30.20;;
14251;SDS011;7210;51.502;10.722;2024-01-11T03:21:57;59.77;;;30.33;;
14251;SDS011;7210;51.502;10.722;2024-01-11T03:24:28;54.07;;;29.57;;
14251;SDS011;7210;51.502;10.722;2024-01-11T03:26:55;53.63;;;28.53;;
14251;SDS011;7210;51.502;10.722;2024-01-11T03:29:22;54.10;;;30.07;;
14251;SDS011;7210;51.502;10.722;2024-01-11T03:31:50;57.53;;;29.97;;
14251;SDS011;7210;51.502;10.722;2024-01-11T03:34:23;55.77;;;30.23;;
14251;SDS011;7210;51.502;10.722;2024-01-11T03:36:50;55.93;;;30.27;;
14251;SDS011;7210;51.502;10.722;2024-01-11T03:39:19;56.60;;;29.90;;
14251;SDS011;7210;51.502;10.722;2024-01-11T03:41:46;57.50;;;30.57;;
14251;SDS011;7210;51.502;10.722;2024-01-11T03:44:14;58.73;;;29.57;;
14251;SDS011;7210;51.502;10.722;2024-01-11T03:46:40;57.57;;;30.40;;
14251;SDS011;7210;51.502;10.722;2024-01-11T03:49:07;59.67;;;30.80;;
14251;SDS011;7210;51.502;10.722;2024-01-11T03:51:35;53.13;;;29.70;;
14251;SDS011;7210;51.502;10.722;2024-01-11T03:54:03;51.73;;;29.13;;
14251;SDS011;7210;51.502;10.722;2024-01-11T03:56:30;55.83;;;30.17;;
14251;SDS011;7210;51.502;10.722;2024-01-11T03:58:57;56.63;;;31.07;;
14251;SDS011;7210;51.502;10.722;2024-01-11T04:01:24;50.70;;;28.50;;
14251;SDS011;7210;51.502;10.722;2024-01-11T04:03:51;53.60;;;30.07;;
14251;SDS011;7210;51.502;10.722;2024-01-11T04:06:19;51.97;;;29.03;;
14251;SDS011;7210;51.502;10.722;2024-01-11T04:08:50;57.00;;;31.03;;
14251;SDS011;7210;51.502;10.722;2024-01-11T04:11:17;55.43;;;29.90;;
14251;SDS011;7210;51.502;10.722;2024-01-11T04:13:44;67.73;;;37.73;;
14251;SDS011;7210;51.502;10.722;2024-01-11T04:16:11;60.83;;;33.43;;
14251;SDS011;7210;51.502;10.722;2024-01-11T04:18:43;64.97;;;34.07;;
14251;SDS011;7210;51.502;10.722;2024-01-11T04:21:22;62.20;;;32.40;;
14251;SDS011;7210;51.502;10.722;2024-01-11T04:23:51;61.50;;;34.27;;
14251;SDS011;7210;51.502;10.722;2024-01-11T04:26:19;55.57;;;30.23;;
14251;SDS011;7210;51.502;10.722;2024-01-11T04:28:46;53.77;;;29.93;;
14251;SDS011;7210;51.502;10.722;2024-01-11T04:31:14;55.37;;;30.17;;
14251;SDS011;7210;51.502;10.722;2024-01-11T04:33:42;56.13;;;29.90;;
14251;SDS011;7210;51.502;10.722;2024-01-11T04:36:10;58.70;;;29.87;;
14251;SDS011;7210;51.502;10.722;2024-01-11T04:38:38;59.07;;;30.83;;
14251;SDS011;7210;51.502;10.722;2024-01-11T04:41:08;59.70;;;30.27;;
14251;SDS011;7210;51.502;10.722;2024-01-11T04:43:37;52.77;;;30.03;;
14251;SDS011;7210;51.502;10.722;2024-01-11T04:46:12;57.50;;;30.03;;
14251;SDS011;7210;51.502;10.722;2024-01-11T04:48:40;53.93;;;28.57;;
14251;SDS011;7210;51.502;10.722;2024-01-11T04:51:07;57.50;;;29.03;;
14251;SDS011;7210;51.502;10.722;2024-01-11T04:53:36;50.07;;;28.43;;
14251;SDS011;7210;51.502;10.722;2024-01-11T04:56:04;55.07;;;29.27;;
14251;SDS011;7210;51.502;10.722;2024-01-11T04:58:34;54.10;;;28.70;;
14251;SDS011;7210;51.502;10.722;2024-01-11T05:01:05;54.93;;;27.93;;
14251;SDS011;7210;51.502;10.722;2024-01-11T05:03:34;53.33;;;28.33;;
14251;SDS011;7210;51.502;10.722;2024-01-11T05:06:01;58.00;;;29.80;;
14251;SDS011;7210;51.502;10.722;2024-01-11T05:08:36;51.10;;;27.70;;
14251;SDS011;7210;51.502;10.722;2024-01-11T05:11:03;48.90;;;27.57;;
14251;SDS011;7210;51.502;10.722;2024-01-11T05:13:32;55.07;;;29.13;;
14251;SDS011;7210;51.502;10.722;2024-01-11T05:16:15;53.83;;;28.50;;
14251;SDS011;7210;51.502;10.722;2024-01-11T05:18:53;52.13;;;29.73;;
14251;SDS011;7210;51.502;10.722;2024-01-11T05:21:31;48.60;;;26.40;;
14251;SDS011;7210;51.502;10.722;2024-01-11T05:23:58;48.60;;;27.17;;
14251;SDS011;7210;51.502;10.722;2024-01-11T05:26:25;52.77;;;29.33;;
14251;SDS011;7210;51.502;10.722;2024-01-11T05:28:54;48.23;;;27.57;;
14251;SDS011;7210;51.502;10.722;2024-01-11T05:31:31;56.93;;;29.47;;
14251;SDS011;7210;51.502;10.722;2024-01-11T05:34:02;55.80;;;29.03;;
14251;SDS011;7210;51.502;10.722;2024-01-11T05:36:29;55.10;;;29.97;;
14251;SDS011;7210;51.502;10.722;2024-01-11T05:38:56;53.77;;;29.37;;
14251;SDS011;7210;51.502;10.722;2024-01-11T05:41:25;49.13;;;27.53;;
14251;SDS011;7210;51.502;10.722;2024-01-11T05:44:07;51.57;;;28.87;;
14251;SDS011;7210;51.502;10.722;2024-01-11T05:46:55;50.40;;;25.47;;
14251;SDS011;7210;51.502;10.722;2024-01-11T05:49:43;46.40;;;26.07;;
14251;SDS011;7210;51.502;10.722;2024-01-11T05:55:35;49.07;;;26.07;;
14251;SDS011;7210;51.502;10.722;2024-01-11T05:58:34;46.40;;;26.20;;
14251;SDS011;7210;51.502;10.722;2024-01-11T06:01:21;50.23;;;26.07;;
14251;SDS011;7210;51.502;10.722;2024-01-11T06:04:06;51.20;;;27.57;;
14251;SDS011;7210;51.502;10.722;2024-01-11T06:06:46;46.23;;;26.23;;
14251;SDS011;7210;51.502;10.722;2024-01-11T06:13:40;47.67;;;23.07;;
14251;SDS011;7210;51.502;10.722;2024-01-11T06:16:29;43.17;;;23.13;;
14251;SDS011;7210;51.502;10.722;2024-01-11T06:19:13;48.83;;;25.33;;
14251;SDS011;7210;51.502;10.722;2024-01-11T06:25:26;46.10;;;22.33;;
14251;SDS011;7210;51.502;10.722;2024-01-11T06:28:08;40.83;;;23.53;;
14251;SDS011;7210;51.502;10.722;2024-01-11T06:30:57;44.63;;;23.97;;
14251;SDS011;7210;51.502;10.722;2024-01-11T06:33:44;44.03;;;24.73;;
14251;SDS011;7210;51.502;10.722;2024-01-11T06:36:47;46.33;;;23.67;;
14251;SDS011;7210;51.502;10.722;2024-01-11T06:39:23;48.03;;;27.47;;
14251;SDS011;7210;51.502;10.722;2024-01-11T06:41:50;49.83;;;26.63;;
14251;SDS011;7210;51.502;10.722;2024-01-11T06:44:17;47.50;;;25.47;;
14251;SDS011;7210;51.502;10.722;2024-01-11T06:46:50;54.00;;;29.33;;
14251;SDS011;7210;51.502;10.722;2024-01-11T06:49:19;50.47;;;26.87;;
14251;SDS011;7210;51.502;10.722;2024-01-11T06:51:45;48.63;;;28.70;;
14251;SDS011;7210;51.502;10.722;2024-01-11T06:54:15;55.93;;;29.27;;
14251;SDS011;7210;51.502;10.722;2024-01-11T06:56:53;48.13;;;26.00;;
14251;SDS011;7210;51.502;10.722;2024-01-11T06:59:21;47.07;;;26.67;;
14251;SDS011;7210;51.502;10.722;2024-01-11T07:01:49;49.37;;;27.30;;
14251;SDS011;7210;51.502;10.722;2024-01-11T07:04:16;57.07;;;29.63;;
14251;SDS011;7210;51.502;10.722;2024-01-11T07:06:45;65.27;;;35.40;;
14251;SDS011;7210;51.502;10.722;2024-01-11T07:09:12;66.73;;;35.73;;
14251;SDS011;7210;51.502;10.722;2024-01-11T07:11:39;68.20;;;35.70;;
14251;SDS011;7210;51.502;10.722;2024-01-11T07:14:06;63.43;;;34.90;;
14251;SDS011;7210;51.502;10.722;2024-01-11T07:16:33;63.43;;;33.67;;
14251;SDS011;7210;51.502;10.722;2024-01-11T07:19:00;50.23;;;28.57;;
14251;SDS011;7210;51.502;10.722;2024-01-11T07:21:28;51.63;;;29.23;;
14251;SDS011;7210;51.502;10.722;2024-01-11T07:23:57;53.10;;;27.67;;
14251;SDS011;7210;51.502;10.722;2024-01-11T07:26:27;45.10;;;26.57;;
14251;SDS011;7210;51.502;10.722;2024-01-11T07:29:18;57.50;;;28.10;;
14251;SDS011;7210;51.502;10.722;2024-01-11T07:32:05;52.03;;;25.80;;
14251;SDS011;7210;51.502;10.722;2024-01-11T07:35:03;94.23;;;47.80;;
14251;SDS011;7210;51.502;10.722;2024-01-11T07:37:46;72.50;;;37.40;;
14251;SDS011;7210;51.502;10.722;2024-01-11T07:40:16;54.57;;;33.43;;
14251;SDS011;7210;51.502;10.722;2024-01-11T07:42:43;59.10;;;33.37;;
14251;SDS011;7210;51.502;10.722;2024-01-11T07:45:12;63.07;;;32.47;;
14251;SDS011;7210;51.502;10.722;2024-01-11T07:47:39;53.40;;;29.10;;
14251;SDS011;7210;51.502;10.722;2024-01-11T07:50:06;47.03;;;26.27;;
14251;SDS011;7210;51.502;10.722;2024-01-11T07:52:35;45.00;;;26.57;;
14251;SDS011;7210;51.502;10.722;2024-01-11T07:55:03;47.47;;;24.97;;
14251;SDS011;7210;51.502;10.722;2024-01-11T07:57:34;49.20;;;26.67;;
14251;SDS011;7210;51.502;10.722;2024-01-11T08:00:01;49.20;;;27.63;;
14251;SDS011;7210;51.502;10.722;2024-01-11T08:02:37;47.60;;;26.30;;
14251;SDS011;7210;51.502;10.722;2024-01-11T08:05:05;48.73;;;27.10;;
14251;SDS011;7210;51.502;10.722;2024-01-11T08:07:34;55.73;;;27.33;;
14251;SDS011;7210;51.502;10.722;2024-01-11T08:10:01;50.77;;;28.17;;
14251;SDS011;7210;51.502;10.722;2024-01-11T08:12:30;54.20;;;26.67;;
14251;SDS011;7210;51.502;10.722;2024-01-11T08:14:59;53.90;;;29.23;;
14251;SDS011;7210;51.502;10.722;2024-01-11T08:17:26;57.77;;;32.90;;
14251;SDS011;7210;51.502;10.722;2024-01-11T08:19:53;51.47;;;28.47;;
14251;SDS011;7210;51.502;10.722;2024-01-11T08:22:21;47.27;;;25.30;;
14251;SDS011;7210;51.502;10.722;2024-01-11T08:24:49;46.57;;;26.17;;
14251;SDS011;7210;51.502;10.722;2024-01-11T08:27:16;51.57;;;27.40;;
14251;SDS011;7210;51.502;10.722;2024-01-11T08:29:44;47.67;;;29.27;;
14251;SDS011;7210;51.502;10.722;2024-01-11T08:32:13;54.93;;;29.97;;
14251;SDS011;7210;51.502;10.722;2024-01-11T08:34:42;53.53;;;30.33;;
14251;SDS011;7210;51.502;10.722;2024-01-11T08:37:09;59.03;;;31.87;;
14251;SDS011;7210;51.502;10.722;2024-01-11T08:39:36;64.37;;;33.33;;
14251;SDS011;7210;51.502;10.722;2024-01-11T08:42:03;61.83;;;32.33;;
14251;SDS011;7210;51.502;10.722;2024-01-11T08:44:30;59.80;;;32.50;;
14251;SDS011;7210;51.502;10.722;2024-01-11T08:46:58;63.87;;;31.77;;
14251;SDS011;7210;51.502;10.722;2024-01-11T08:49:27;55.47;;;33.10;;
14251;SDS011;7210;51.502;10.722;2024-01-11T08:51:55;57.50;;;32.27;;
14251;SDS011;7210;51.502;10.722;2024-01-11T08:54:22;61.17;;;33.87;;
14251;SDS011;7210;51.502;10.722;2024-01-11T08:56:49;57.07;;;32.53;;
14251;SDS011;7210;51.502;10.722;2024-01-11T08:59:16;59.73;;;34.87;;
14251;SDS011;7210;51.502;10.722;2024-01-11T09:01:43;60.93;;;33.97;;
14251;SDS011;7210;51.502;10.722;2024-01-11T09:04:10;62.27;;;33.53;;
14251;SDS011;7210;51.502;10.722;2024-01-11T09:06:39;62.57;;;34.87;;
14251;SDS011;7210;51.502;10.722;2024-01-11T09:09:07;63.13;;;36.57;;
14251;SDS011;7210;51.502;10.722;2024-01-11T09:11:35;62.10;;;35.63;;
14251;SDS011;7210;51.502;10.722;2024-01-11T09:14:02;64.00;;;34.90;;
14251;SDS011;7210;51.502;10.722;2024-01-11T09:16:31;62.30;;;36.37;;
14251;SDS011;7210;51.502;10.722;2024-01-11T09:18:59;65.30;;;35.80;;
14251;SDS011;7210;51.502;10.722;2024-01-11T09:21:26;68.53;;;38.30;;
14251;SDS011;7210;51.502;10.722;2024-01-11T09:23:57;65.20;;;35.90;;
14251;SDS011;7210;51.502;10.722;2024-01-11T09:26:24;67.60;;;37.60;;
14251;SDS011;7210;51.502;10.722;2024-01-11T09:28:51;62.40;;;36.00;;
14251;SDS011;7210;51.502;10.722;2024-01-11T09:31:18;65.77;;;37.73;;
14251;SDS011;7210;51.502;10.722;2024-01-11T09:33:45;58.43;;;36.17;;
14251;SDS011;7210;51.502;10.722;2024-01-11T09:36:15;62.67;;;36.43;;
14251;SDS011;7210;51.502;10.722;2024-01-11T09:38:49;67.50;;;38.00;;
14251;SDS011;7210;51.502;10.722;2024-01-11T09:41:18;63.03;;;37.87;;
14251;SDS011;7210;51.502;10.722;2024-01-11T09:43:45;76.00;;;42.03;;
14251;SDS011;7210;51.502;10.722;2024-01-11T09:46:17;63.20;;;36.17;;
14251;SDS011;7210;51.502;10.722;2024-01-11T09:48:46;62.70;;;36.03;;
14251;SDS011;7210;51.502;10.722;2024-01-11T09:51:15;88.07;;;47.03;;
14251;SDS011;7210;51.502;10.722;2024-01-11T09:53:42;73.60;;;41.90;;
14251;SDS011;7210;51.502;10.722;2024-01-11T09:56:10;97.03;;;50.50;;
14251;SDS011;7210;51.502;10.722;2024-01-11T09:58:39;86.37;;;48.63;;
14251;SDS011;7210;51.502;10.722;2024-01-11T10:01:19;78.70;;;43.20;;
14251;SDS011;7210;51.502;10.722;2024-01-11T10:03:49;85.17;;;48.03;;
14251;SDS011;7210;51.502;10.722;2024-01-11T10:06:19;60.80;;;36.63;;
14251;SDS011;7210;51.502;10.722;2024-01-11T10:08:50;62.67;;;36.30;;
14251;SDS011;7210;51.502;10.722;2024-01-11T10:11:17;58.80;;;33.90;;
14251;SDS011;7210;51.502;10.722;2024-01-11T10:13:45;63.23;;;35.97;;
14251;SDS011;7210;51.502;10.722;2024-01-11T10:16:13;59.33;;;35.03;;
14251;SDS011;7210;51.502;10.722;2024-01-11T10:18:40;57.00;;;33.77;;
14251;SDS011;7210;51.502;10.722;2024-01-11T10:21:13;52.53;;;31.73;;
14251;SDS011;7210;51.502;10.722;2024-01-11T10:23:40;56.93;;;33.27;;
14251;SDS011;7210;51.502;10.722;2024-01-11T10:26:08;62.90;;;35.30;;
14251;SDS011;7210;51.502;10.722;2024-01-11T10:28:36;55.57;;;33.67;;
14251;SDS011;7210;51.502;10.722;2024-01-11T10:31:04;53.43;;;33.13;;
14251;SDS011;7210;51.502;10.722;2024-01-11T10:33:33;59.27;;;33.57;;
14251;SDS011;7210;51.502;10.722;2024-01-11T10:36:01;57.00;;;32.90;;
14251;SDS011;7210;51.502;10.722;2024-01-11T10:38:30;57.00;;;34.27;;
14251;SDS011;7210;51.502;10.722;2024-01-11T10:41:00;58.83;;;37.00;;
14251;SDS011;7210;51.502;10.722;2024-01-11T10:43:32;57.47;;;34.17;;
14251;SDS011;7210;51.502;10.722;2024-01-11T10:46:05;54.13;;;31.83;;
14251;SDS011;7210;51.502;10.722;2024-01-11T10:48:37;60.87;;;34.60;;
14251;SDS011;7210;51.502;10.722;2024-01-11T10:51:06;52.33;;;30.70;;
14251;SDS011;7210;51.502;10.722;2024-01-11T10:53:40;49.13;;;31.43;;
14251;SDS011;7210;51.502;10.722;2024-01-11T10:56:14;54.33;;;33.00;;
14251;SDS011;7210;51.502;10.722;2024-01-11T10:58:42;52.30;;;32.43;;
14251;SDS011;7210;51.502;10.722;2024-01-11T11:01:11;51.40;;;33.33;;
14251;SDS011;7210;51.502;10.722;2024-01-11T11:03:39;51.13;;;31.47;;
14251;SDS011;7210;51.502;10.722;2024-01-11T11:06:08;48.03;;;31.33;;
14251;SDS011;7210;51.502;10.722;2024-01-11T11:08:37;53.47;;;32.67;;
14251;SDS011;7210;51.502;10.722;2024-01-11T11:11:07;57.00;;;32.40;;
14251;SDS011;7210;51.502;10.722;2024-01-11T11:13:37;52.83;;;29.83;;
14251;SDS011;7210;51.502;10.722;2024-01-11T11:16:06;49.47;;;29.93;;
14251;SDS011;7210;51.502;10.722;2024-01-11T11:18:35;47.73;;;30.80;;
14251;SDS011;7210;51.502;10.722;2024-01-11T11:21:06;49.53;;;30.60;;
14251;SDS011;7210;51.502;10.722;2024-01-11T11:23:36;51.73;;;30.57;;
14251;SDS011;7210;51.502;10.722;2024-01-11T11:26:05;50.97;;;31.63;;
14251;SDS011;7210;51.502;10.722;2024-01-11T11:28:34;47.03;;;28.67;;
14251;SDS011;7210;51.502;10.722;2024-01-11T11:31:02;48.17;;;30.63;;
14251;SDS011;7210;51.502;10.722;2024-01-11T11:33:29;47.57;;;30.33;;
14251;SDS011;7210;51.502;10.722;2024-01-11T11:36:03;49.60;;;31.53;;
14251;SDS011;7210;51.502;10.722;2024-01-11T11:38:32;48.00;;;29.30;;
14251;SDS011;7210;51.502;10.722;2024-01-11T11:41:02;47.40;;;30.37;;
14251;SDS011;7210;51.502;10.722;2024-01-11T11:43:30;51.57;;;31.80;;
14251;SDS011;7210;51.502;10.722;2024-01-11T11:45:58;52.00;;;31.23;;
14251;SDS011;7210;51.502;10.722;2024-01-11T11:48:48;46.77;;;27.37;;
14251;SDS011;7210;51.502;10.722;2024-01-11T11:51:19;48.23;;;30.30;;
14251;SDS011;7210;51.502;10.722;2024-01-11T11:53:47;42.00;;;28.03;;
14251;SDS011;7210;51.502;10.722;2024-01-11T11:56:16;46.50;;;29.10;;
14251;SDS011;7210;51.502;10.722;2024-01-11T12:05:04;48.13;;;29.53;;
14251;SDS011;7210;51.502;10.722;2024-01-11T12:07:33;46.57;;;29.53;;
14251;SDS011;7210;51.502;10.722;2024-01-11T12:10:01;45.03;;;28.37;;
14251;SDS011;7210;51.502;10.722;2024-01-11T12:12:28;44.83;;;28.47;;
14251;SDS011;7210;51.502;10.722;2024-01-11T12:14:56;46.03;;;29.40;;
14251;SDS011;7210;51.502;10.722;2024-01-11T12:17:24;45.40;;;27.13;;
14251;SDS011;7210;51.502;10.722;2024-01-11T12:19:51;42.73;;;28.80;;
14251;SDS011;7210;51.502;10.722;2024-01-11T12:22:19;49.63;;;31.20;;
14251;SDS011;7210;51.502;10.722;2024-01-11T12:24:48;46.10;;;29.60;;
14251;SDS011;7210;51.502;10.722;2024-01-11T12:27:15;41.53;;;27.87;;
14251;SDS011;7210;51.502;10.722;2024-01-11T12:29:42;43.97;;;29.10;;
14251;SDS011;7210;51.502;10.722;2024-01-11T12:32:09;42.10;;;28.13;;
14251;SDS011;7210;51.502;10.722;2024-01-11T12:34:37;45.30;;;28.03;;
14251;SDS011;7210;51.502;10.722;2024-01-11T12:37:05;38.97;;;24.23;;
14251;SDS011;7210;51.502;10.722;2024-01-11T12:39:32;42.73;;;25.83;;
14251;SDS011;7210;51.502;10.722;2024-01-11T12:42:00;42.57;;;26.87;;
14251;SDS011;7210;51.502;10.722;2024-01-11T12:44:37;36.93;;;25.90;;
14251;SDS011;7210;51.502;10.722;2024-01-11T12:47:05;43.20;;;26.37;;
14251;SDS011;7210;51.502;10.722;2024-01-11T12:49:34;38.70;;;24.57;;
14251;SDS011;7210;51.502;10.722;2024-01-11T12:52:01;44.40;;;27.60;;
14251;SDS011;7210;51.502;10.722;2024-01-11T12:54:29;42.53;;;25.87;;
14251;SDS011;7210;51.502;10.722;2024-01-11T12:57:01;42.60;;;26.27;;
14251;SDS011;7210;51.502;10.722;2024-01-11T12:59:29;39.87;;;25.40;;
14251;SDS011;7210;51.502;10.722;2024-01-11T13:01:57;42.93;;;24.70;;
14251;SDS011;7210;51.502;10.722;2024-01-11T13:04:25;40.70;;;24.77;;
14251;SDS011;7210;51.502;10.722;2024-01-11T13:06:53;39.70;;;25.83;;
14251;SDS011;7210;51.502;10.722;2024-01-11T13:09:21;43.87;;;26.43;;
14251;SDS011;7210;51.502;10.722;2024-01-11T13:11:49;34.50;;;24.03;;
14251;SDS011;7210;51.502;10.722;2024-01-11T13:14:18;37.03;;;25.00;;
14251;SDS011;7210;51.502;10.722;2024-01-11T13:16:45;40.33;;;24.60;;
14251;SDS011;7210;51.502;10.722;2024-01-11T13:19:14;33.87;;;22.93;;
14251;SDS011;7210;51.502;10.722;2024-01-11T13:21:41;36.00;;;24.00;;
14251;SDS011;7210;51.502;10.722;2024-01-11T13:24:14;44.60;;;30.20;;
14251;SDS011;7210;51.502;10.722;2024-01-11T13:26:42;38.47;;;25.63;;
14251;SDS011;7210;51.502;10.722;2024-01-11T13:29:09;33.97;;;23.27;;
14251;SDS011;7210;51.502;10.722;2024-01-11T13:31:37;39.53;;;24.00;;
14251;SDS011;7210;51.502;10.722;2024-01-11T13:34:05;34.80;;;25.10;;
14251;SDS011;7210;51.502;10.722;2024-01-11T13:36:32;41.37;;;24.00;;
14251;SDS011;7210;51.502;10.722;2024-01-11T13:38:59;37.17;;;24.90;;
14251;SDS011;7210;51.502;10.722;2024-01-11T13:41:27;38.03;;;23.67;;
14251;SDS011;7210;51.502;10.722;2024-01-11T13:43:54;37.33;;;23.67;;
14251;SDS011;7210;51.502;10.722;2024-01-11T13:46:21;44.30;;;24.80;;
14251;SDS011;7210;51.502;10.722;2024-01-11T13:48:50;41.30;;;25.67;;
14251;SDS011;7210;51.502;10.722;2024-01-11T13:51:18;45.17;;;26.43;;
14251;SDS011;7210;51.502;10.722;2024-01-11T13:53:45;41.17;;;25.03;;
14251;SDS011;7210;51.502;10.722;2024-01-11T13:56:12;40.03;;;25.37;;
14251;SDS011;7210;51.502;10.722;2024-01-11T13:58:39;43.57;;;27.03;;
14251;SDS011;7210;51.502;10.722;2024-01-11T14:01:07;38.57;;;23.97;;
14251;SDS011;7210;51.502;10.722;2024-01-11T14:03:34;39.40;;;23.57;;
14251;SDS011;7210;51.502;10.722;2024-01-11T14:06:02;38.23;;;24.37;;
14251;SDS011;7210;51.502;10.722;2024-01-11T14:08:30;38.63;;;24.43;;
14251;SDS011;7210;51.502;10.722;2024-01-11T14:11:01;37.07;;;23.67;;
14251;SDS011;7210;51.502;10.722;2024-01-11T14:13:31;36.23;;;23.47;;
14251;SDS011;7210;51.502;10.722;2024-01-11T14:15:58;33.70;;;22.60;;
14251;SDS011;7210;51.502;10.722;2024-01-11T14:18:26;38.27;;;23.80;;
14251;SDS011;7210;51.502;10.722;2024-01-11T14:20:53;39.23;;;23.73;;
14251;SDS011;7210;51.502;10.722;2024-01-11T14:23:31;37.10;;;23.13;;
14251;SDS011;7210;51.502;10.722;2024-01-11T14:26:32;36.63;;;23.40;;
14251;SDS011;7210;51.502;10.722;2024-01-11T14:29:08;38.43;;;24.43;;
14251;SDS011;7210;51.502;10.722;2024-01-11T14:31:36;35.50;;;22.57;;
14251;SDS011;7210;51.502;10.722;2024-01-11T14:34:04;39.87;;;23.20;;
14251;SDS011;7210;51.502;10.722;2024-01-11T14:36:31;40.40;;;24.43;;
14251;SDS011;7210;51.502;10.722;2024-01-11T14:38:59;37.60;;;22.93;;
14251;SDS011;7210;51.502;10.722;2024-01-11T14:41:29;40.70;;;23.70;;
14251;SDS011;7210;51.502;10.722;2024-01-11T14:43:56;33.73;;;22.20;;
14251;SDS011;7210;51.502;10.722;2024-01-11T14:46:25;37.00;;;23.47;;
14251;SDS011;7210;51.502;10.722;2024-01-11T14:48:52;37.97;;;23.17;;
14251;SDS011;7210;51.502;10.722;2024-01-11T14:51:19;35.70;;;23.40;;
14251;SDS011;7210;51.502;10.722;2024-01-11T14:53:47;40.63;;;23.23;;